Time;durP1;ratioP1;P1;durP2;ratioP2;P2;SDS_P1;SDS_P2;PMS_P1;PMS_P2;Temp;Humidity;BMP_temperature;BMP_pressure;BME280_temperature;BME280_humidity;BME280_pressure;Samples;Min_cycle;Max_cycle;Signal;HPM_P1;HPM_P2
2022/05/19 00:03:34;;;;;;;3.88;2.85;;;;;;;13.36;nan;101537.19;4974074;28;20451;-81
2022/05/19 00:06:02;;;;;;;3.55;3.17;;;;;;;13.31;nan;101533.75;4973446;28;20133;-81
2022/05/19 00:08:29;;;;;;;2.80;2.47;;;;;;;13.30;nan;101526.72;4954356;28;20491;-82
2022/05/19 00:10:57;;;;;;;3.97;3.03;;;;;;;13.24;nan;101530.34;4965423;28;20059;-81
2022/05/19 00:13:25;;;;;;;4.97;3.22;;;;;;;13.27;nan;101521.44;4959034;28;20039;-81
2022/05/19 00:15:52;;;;;;;3.58;2.97;;;;;;;13.25;nan;101520.59;4970936;28;20279;-81
2022/05/19 00:18:19;;;;;;;4.68;3.05;;;;;;;13.29;nan;101524.97;4970352;28;20535;-81
2022/05/19 00:20:46;;;;;;;4.55;2.80;;;;;;;13.22;nan;101513.56;4956050;28;20038;-82
2022/05/19 00:23:14;;;;;;;3.47;2.53;;;;;;;13.11;nan;101523.44;4938632;28;20038;-81
2022/05/19 00:25:41;;;;;;;4.25;3.20;;;;;;;13.06;nan;101519.16;4956910;28;20150;-82
2022/05/19 00:28:08;;;;;;;4.40;2.97;;;;;;;13.05;nan;101512.97;4954848;28;20085;-79
2022/05/19 00:30:35;;;;;;;4.13;3.22;;;;;;;13.04;nan;101515.66;4955741;28;20042;-81
2022/05/19 00:33:02;;;;;;;4.70;3.30;;;;;;;12.99;nan;101515.72;4953375;28;20050;-82
2022/05/19 00:35:29;;;;;;;3.40;2.85;;;;;;;12.94;nan;101510.47;4940941;28;20039;-82
2022/05/19 00:37:55;;;;;;;3.03;2.72;;;;;;;12.88;nan;101515.91;4954546;28;20039;-81
2022/05/19 00:40:23;;;;;;;4.28;3.00;;;;;;;12.88;nan;101515.03;4955068;28;20492;-81
2022/05/19 00:42:51;;;;;;;4.10;2.95;;;;;;;12.83;nan;101515.09;4935299;28;20070;-81
2022/05/19 00:45:26;;;;;;;4.45;3.13;;;;;;;12.86;nan;101508.84;4952490;29;20086;-81
2022/05/19 00:47:58;;;;;;;4.10;3.17;;;;;;;12.79;nan;101512.53;4951759;28;20059;-80
2022/05/19 00:50:45;;;;;;;4.95;3.35;;;;;;;12.71;nan;101511.75;4954943;28;20043;-81
2022/05/19 00:53:24;;;;;;;4.95;3.00;;;;;;;12.70;nan;101505.59;4930885;28;20042;-81
2022/05/19 00:55:51;;;;;;;3.58;3.10;;;;;;;12.63;nan;101515.41;4969992;28;20043;-80
2022/05/19 00:58:32;;;;;;;4.00;2.80;;;;;;;12.58;nan;101516.38;4952952;28;20035;-81
2022/05/19 01:00:58;;;;;;;3.13;2.53;;;;;;;12.54;nan;101514.69;4946862;28;20039;-81
2022/05/19 01:03:28;;;;;;;3.10;2.80;;;;;;;12.51;nan;101517.34;4935624;28;20043;-80
2022/05/19 01:06:00;;;;;;;4.63;3.05;;;;;;;12.47;nan;101511.22;4964032;28;20128;-81
2022/05/19 01:08:48;;;;;;;3.67;3.10;;;;;;;12.47;nan;101515.66;4947099;28;20516;-81
2022/05/19 01:11:16;;;;;;;5.72;4.10;;;;;;;12.39;nan;101511.34;4954303;28;20077;-81
2022/05/19 01:13:43;;;;;;;5.90;3.78;;;;;;;12.36;nan;101514.03;4951031;28;20090;-81
2022/05/19 01:16:10;;;;;;;4.13;3.17;;;;;;;12.32;nan;101508.78;4942632;28;20421;-81
2022/05/19 01:18:37;;;;;;;4.50;2.85;;;;;;;12.26;nan;101509.75;4953726;28;20074;-81
2022/05/19 01:21:06;;;;;;;3.42;2.90;;;;;;;12.32;nan;101496.41;4955085;28;20090;-81
2022/05/19 01:23:58;;;;;;;4.07;2.90;;;;;;;12.29;nan;101500.91;4967567;28;20038;-81
2022/05/19 01:26:28;;;;;;;3.85;3.05;;;;;;;12.20;nan;101509.84;4954015;28;20046;-80
2022/05/19 01:28:57;;;;;;;3.83;2.88;;;;;;;12.16;nan;101502.81;4959070;28;20050;-81
2022/05/19 01:31:36;;;;;;;4.45;2.72;;;;;;;12.11;nan;101502.03;4935308;28;20046;-80
2022/05/19 01:34:06;;;;;;;5.38;3.20;;;;;;;12.12;nan;101503.78;4954232;28;20488;-80
2022/05/19 01:36:33;;;;;;;3.50;3.20;;;;;;;12.13;nan;101488.75;4938060;28;20046;-80
2022/05/19 01:39:13;;;;;;;4.93;3.25;;;;;;;12.14;nan;101498.47;4948695;28;20094;-81
2022/05/19 01:42:18;;;;;;;4.00;2.60;;;;;;;12.04;nan;101505.66;4964808;28;20526;-81
2022/05/19 01:45:00;;;;;;;4.38;3.10;;;;;;;11.93;nan;101504.91;4945790;28;20432;-80
2022/05/19 01:47:41;;;;;;;3.83;3.03;;;;;;;11.97;nan;101498.69;4967161;28;20496;-80
2022/05/19 01:50:29;;;;;;;4.03;3.15;;;;;;;11.90;nan;101505.81;4952993;28;20130;-80
2022/05/19 01:53:02;;;;;;;3.88;2.80;;;;;;;11.84;nan;101506.75;4969578;28;20031;-81
2022/05/19 01:55:49;;;;;;;5.38;3.40;;;;;;;11.84;nan;101506.75;4955450;28;20102;-81
2022/05/19 01:58:48;;;;;;;3.75;2.88;;;;;;;11.80;nan;101505.06;4946338;28;20039;-81
2022/05/19 02:01:17;;;;;;;4.80;3.03;;;;;;;11.69;nan;101506.06;4953519;28;20047;-81
2022/05/19 02:04:02;;;;;;;6.57;3.50;;;;;;;11.75;nan;101500.66;4937941;28;20448;-82
2022/05/19 02:06:35;;;;;;;5.03;2.97;;;;;;;11.62;nan;101497.31;4951149;28;20388;-81
2022/05/19 02:09:07;;;;;;;5.22;3.75;;;;;;;11.70;nan;101498.09;4953116;28;20384;-81
2022/05/19 02:11:42;;;;;;;4.28;3.20;;;;;;;11.60;nan;101507.00;4935323;28;20126;-81
2022/05/19 02:14:15;;;;;;;4.45;3.60;;;;;;;11.59;nan;101494.66;4948428;28;20051;-81
2022/05/19 02:16:42;;;;;;;3.30;3.00;;;;;;;11.45;nan;101492.19;4954562;28;20122;-81
2022/05/19 02:19:11;;;;;;;3.80;2.80;;;;;;;11.49;nan;101496.56;4953425;28;20058;-80
2022/05/19 02:21:38;;;;;;;5.63;3.70;;;;;;;11.51;nan;101486.81;4952084;28;20460;-80
2022/05/19 02:24:05;;;;;;;4.70;3.60;;;;;;;11.48;nan;101494.81;4953182;28;20174;-81
2022/05/19 02:26:33;;;;;;;4.40;3.05;;;;;;;11.39;nan;101488.75;4954215;28;20039;-81
2022/05/19 02:29:07;;;;;;;4.25;3.67;;;;;;;11.43;nan;101491.31;4936820;28;20165;-81
2022/05/19 02:31:34;;;;;;;3.90;3.50;;;;;;;11.33;nan;101492.31;4953214;28;20074;-81
2022/05/19 02:34:01;;;;;;;5.03;3.10;;;;;;;11.45;nan;101483.38;4968224;28;20503;-81
2022/05/19 02:36:27;;;;;;;5.07;3.53;;;;;;;11.44;nan;101482.50;4938621;28;20093;-81
2022/05/19 02:38:54;;;;;;;4.00;3.30;;;;;;;11.33;nan;101480.84;4968447;28;20096;-81
2022/05/19 02:41:21;;;;;;;4.28;2.90;;;;;;;11.41;nan;101484.28;4945244;28;20057;-81
2022/05/19 02:43:47;;;;;;;4.00;2.90;;;;;;;11.36;nan;101486.13;4957927;28;20109;-81
2022/05/19 02:46:14;;;;;;;4.10;3.08;;;;;;;11.28;nan;101480.91;4954897;28;20785;-82
2022/05/19 02:48:41;;;;;;;8.23;5.13;;;;;;;11.31;nan;101487.94;4957489;28;20045;-82
2022/05/19 02:51:07;;;;;;;8.20;4.88;;;;;;;11.34;nan;101483.47;4973526;28;20067;-80
2022/05/19 02:53:34;;;;;;;5.38;3.42;;;;;;;11.24;nan;101488.00;4938955;28;20071;-81
2022/05/19 02:56:01;;;;;;;5.35;3.78;;;;;;;11.20;nan;101488.94;4932273;28;20035;-81
2022/05/19 02:58:28;;;;;;;5.35;4.03;;;;;;;11.19;nan;101492.47;4956522;28;20054;-81
2022/05/19 03:00:54;;;;;;;3.80;3.38;;;;;;;11.26;nan;101485.31;4958732;28;20062;-81
2022/05/19 03:03:21;;;;;;;4.70;3.33;;;;;;;11.16;nan;101492.47;4971250;28;20042;-81
2022/05/19 03:05:48;;;;;;;4.18;2.95;;;;;;;11.13;nan;101500.44;4955972;28;20039;-81
2022/05/19 03:08:15;;;;;;;4.30;3.45;;;;;;;11.18;nan;101495.09;4971544;28;20631;-81
2022/05/19 03:10:43;;;;;;;4.28;3.22;;;;;;;11.18;nan;101506.59;4969507;28;20648;-81
2022/05/19 03:13:21;;;;;;;4.45;3.20;;;;;;;11.13;nan;101505.75;4940959;28;20531;-81
2022/05/19 03:15:49;;;;;;;5.30;3.55;;;;;;;11.16;nan;101503.06;4954995;28;20108;-81
2022/05/19 03:18:16;;;;;;;4.32;3.63;;;;;;;11.19;nan;101502.19;4945112;28;20134;-80
2022/05/19 03:20:43;;;;;;;5.18;3.20;;;;;;;11.18;nan;101511.88;4940559;29;20043;-81
2022/05/19 03:23:09;;;;;;;7.10;3.45;;;;;;;11.22;nan;101507.44;4954001;28;20547;-80
2022/05/19 03:25:36;;;;;;;7.00;4.53;;;;;;;11.17;nan;101507.44;4957283;28;20057;-81
2022/05/19 03:28:03;;;;;;;5.82;4.38;;;;;;;11.19;nan;101505.69;4949790;28;20046;-81
2022/05/19 03:30:30;;;;;;;5.60;3.42;;;;;;;11.19;nan;101505.69;4950797;28;20039;-80
2022/05/19 03:32:57;;;;;;;4.88;3.55;;;;;;;11.24;nan;101505.63;4944406;28;20069;-80
2022/05/19 03:35:24;;;;;;;10.00;3.90;;;;;;;11.28;nan;101492.38;4945616;28;20054;-80
2022/05/19 03:37:54;;;;;;;10.45;4.32;;;;;;;11.33;nan;101497.59;4959827;28;20039;-81
2022/05/19 03:40:22;;;;;;;10.77;3.78;;;;;;;11.31;nan;101498.53;4948558;28;20050;-80
2022/05/19 03:42:48;;;;;;;8.45;4.15;;;;;;;11.39;nan;101497.53;4949269;28;20049;-80
2022/05/19 03:45:15;;;;;;;7.00;3.53;;;;;;;11.39;nan;101496.66;4934333;28;20053;-80
2022/05/19 03:47:42;;;;;;;7.95;4.85;;;;;;;11.45;nan;101494.84;4963050;28;20042;-80
2022/05/19 03:50:09;;;;;;;10.68;4.05;;;;;;;11.52;nan;101498.31;4950941;28;20034;-81
2022/05/19 03:52:43;;;;;;;9.38;3.88;;;;;;;11.57;nan;101496.47;4946096;28;20046;-81
2022/05/19 03:55:12;;;;;;;5.80;3.80;;;;;;;11.58;nan;101498.22;4945790;28;20660;-82
2022/05/19 03:57:40;;;;;;;6.55;3.85;;;;;;;11.56;nan;101502.66;4954524;28;20039;-82
2022/05/19 04:00:09;;;;;;;5.00;3.50;;;;;;;11.70;nan;101499.88;4956121;28;20046;-81
2022/05/19 04:02:36;;;;;;;4.82;3.60;;;;;;;11.68;nan;101502.50;4969754;28;20046;-81
2022/05/19 04:05:04;;;;;;;5.90;3.38;;;;;;;11.77;nan;101506.81;4985593;28;20039;-81
2022/05/19 04:07:31;;;;;;;5.68;3.30;;;;;;;11.80;nan;101505.06;4969504;28;21111;-81
2022/05/19 04:09:58;;;;;;;4.50;3.58;;;;;;;11.81;nan;101501.50;4967510;28;20058;-81
2022/05/19 04:12:25;;;;;;;4.22;3.55;;;;;;;11.90;nan;101499.66;4969683;28;20043;-81
2022/05/19 04:14:51;;;;;;;7.10;4.00;;;;;;;11.98;nan;101497.78;4965013;28;20044;-80
2022/05/19 04:17:18;;;;;;;5.43;3.63;;;;;;;12.00;nan;101503.94;4967420;28;20039;-81
2022/05/19 04:19:45;;;;;;;5.53;3.63;;;;;;;12.09;nan;101495.84;4988102;28;20375;-82
2022/05/19 04:22:11;;;;;;;6.60;3.75;;;;;;;12.12;nan;101487.88;4985562;28;20051;-81
2022/05/19 04:24:38;;;;;;;5.55;3.72;;;;;;;12.19;nan;101491.31;4986680;28;20117;-81
2022/05/19 04:27:05;;;;;;;3.95;3.55;;;;;;;12.22;nan;101492.16;4987724;28;20127;-81
2022/05/19 04:29:32;;;;;;;7.13;3.90;;;;;;;12.35;nan;101485.75;4966382;28;20046;-81
2022/05/19 04:31:59;;;;;;;5.20;3.90;;;;;;;12.33;nan;101490.22;4965748;28;20350;-81
2022/05/19 04:34:26;;;;;;;5.32;3.90;;;;;;;12.39;nan;101484.84;4973076;28;20038;-81
2022/05/19 04:36:52;;;;;;;4.78;3.63;;;;;;;12.46;nan;101487.41;4974549;28;20040;-81
2022/05/19 04:39:19;;;;;;;4.72;3.70;;;;;;;12.54;nan;101486.38;4986683;28;20038;-80
2022/05/19 04:41:46;;;;;;;3.85;3.17;;;;;;;12.56;nan;101481.94;4991109;28;20047;-81
2022/05/19 04:44:13;;;;;;;3.58;3.10;;;;;;;12.66;nan;101475.59;4989007;28;20038;-81
2022/05/19 04:46:39;;;;;;;3.75;3.20;;;;;;;12.81;nan;101479.78;4982279;28;20062;-81
2022/05/19 04:49:06;;;;;;;3.97;3.20;;;;;;;12.92;nan;101480.44;4951830;28;20039;-80
2022/05/19 04:51:33;;;;;;;6.47;3.88;;;;;;;13.06;nan;101477.56;4958859;28;20057;-81
2022/05/19 04:53:59;;;;;;;4.35;3.47;;;;;;;13.09;nan;101473.97;4973126;28;20067;-80
2022/05/19 04:56:26;;;;;;;93.93;16.85;;;;;;;13.27;nan;101478.97;4953394;28;20039;-80
2022/05/19 04:58:53;;;;;;;268.38;41.70;;;;;;;13.40;nan;101482.28;4950815;29;20047;-81
2022/05/19 05:01:19;;;;;;;166.32;27.08;;;;;;;13.53;nan;101479.34;4985461;28;20507;-81
2022/05/19 05:03:46;;;;;;;74.22;14.18;;;;;;;13.70;nan;101476.38;4988853;28;20046;-81
2022/05/19 05:06:13;;;;;;;7.40;3.53;;;;;;;13.89;nan;101476.00;4955791;28;20038;-80
2022/05/19 05:08:40;;;;;;;8.90;4.30;;;;;;;14.04;nan;101475.66;4971166;28;20046;-81
2022/05/19 05:11:07;;;;;;;9.52;3.80;;;;;;;14.21;nan;101478.84;4970251;28;20059;-81
2022/05/19 05:13:33;;;;;;;5.95;3.65;;;;;;;14.40;nan;101479.28;4983183;28;20101;-80
2022/05/19 05:16:00;;;;;;;7.57;3.53;;;;;;;14.55;nan;101486.94;4968944;28;20046;-82
2022/05/19 05:18:28;;;;;;;4.68;3.55;;;;;;;14.72;nan;101480.34;4975847;28;20043;-80
2022/05/19 05:21:16;;;;;;;6.68;3.53;;;;;;;14.99;nan;101486.75;4972570;28;20026;-81
2022/05/19 05:23:43;;;;;;;4.30;3.40;;;;;;;15.19;nan;101481.78;4948349;28;20047;-80
2022/05/19 05:26:10;;;;;;;5.85;3.53;;;;;;;15.39;nan;101478.59;4961013;28;20039;-81
2022/05/19 05:28:37;;;;;;;5.90;3.92;;;;;;;15.57;nan;101483.41;4943465;28;20046;-81
2022/05/19 05:31:04;;;;;;;4.13;3.60;;;;;;;15.74;nan;101483.84;4960655;28;20053;-80
2022/05/19 05:33:31;;;;;;;4.38;3.28;;;;;;;15.88;nan;101486.09;4959760;28;20042;-80
2022/05/19 05:35:59;;;;;;;4.50;3.38;;;;;;;16.09;nan;101476.59;5104857;23;20050;-81
2022/05/19 05:38:26;;;;;;;4.97;3.95;;;;;;;16.21;nan;101480.66;4970143;23;20046;-80
2022/05/19 05:40:54;;;;;;;4.47;3.33;;;;;;;16.38;nan;101486.34;4958990;28;20047;-81
2022/05/19 05:43:21;;;;;;;4.15;2.95;;;;;;;16.51;nan;101482.38;5005378;28;20045;-81
2022/05/19 05:45:49;;;;;;;4.72;3.60;;;;;;;16.61;nan;101474.94;5011288;28;20034;-80
2022/05/19 05:48:15;;;;;;;3.28;2.97;;;;;;;16.76;nan;101478.97;4999247;28;20045;-81
2022/05/19 05:50:45;;;;;;;3.97;3.17;;;;;;;16.87;nan;101479.47;5016125;28;20039;-80
2022/05/19 05:53:12;;;;;;;3.80;3.22;;;;;;;17.03;nan;101478.03;4975986;28;20048;-80
2022/05/19 05:55:39;;;;;;;5.55;3.30;;;;;;;17.31;nan;101482.41;4978525;28;20092;-80
2022/05/19 05:58:07;;;;;;;4.82;3.50;;;;;;;17.80;nan;101483.31;5002090;23;20483;-76
2022/05/19 06:00:34;;;;;;;4.22;3.70;;;;;;;18.13;nan;101483.84;4992459;28;20042;-76
2022/05/19 06:03:01;;;;;;;5.82;3.53;;;;;;;18.44;nan;101489.75;4975252;28;20049;-76
2022/05/19 06:05:28;;;;;;;4.13;3.05;;;;;;;18.60;nan;101490.00;4992456;28;20169;-77
2022/05/19 06:07:54;;;;;;;5.60;3.60;;;;;;;18.82;nan;101484.66;4989554;28;20158;-76
2022/05/19 06:10:21;;;;;;;4.47;3.20;;;;;;;18.98;nan;101487.56;4992428;28;20064;-76
2022/05/19 06:12:49;;;;;;;4.53;3.40;;;;;;;18.81;nan;101480.22;4975775;28;20042;-76
2022/05/19 06:15:17;;;;;;;4.50;3.42;;;;;;;18.83;nan;101476.59;4977405;28;20091;-76
2022/05/19 06:17:44;;;;;;;4.93;3.72;;;;;;;18.96;nan;101482.28;4975802;28;20115;-77
2022/05/19 06:20:14;;;;;;;6.07;3.40;;;;;;;18.99;nan;101484.81;4989414;28;20042;-77
2022/05/19 06:22:43;;;;;;;4.10;3.65;;;;;;;19.02;nan;101479.34;4968373;28;20052;-76
2022/05/19 06:25:11;;;;;;;5.28;3.53;;;;;;;19.04;nan;101476.59;4985315;28;20386;-76
2022/05/19 06:27:38;;;;;;;4.00;3.50;;;;;;;19.15;nan;101476.13;4972440;28;20046;-76
2022/05/19 06:30:07;;;;;;;4.25;3.53;;;;;;;19.25;nan;101472.09;4993911;28;20042;-77
2022/05/19 06:32:37;;;;;;;5.97;3.92;;;;;;;19.46;nan;101476.53;5011173;28;20428;-78
2022/05/19 06:35:05;;;;;;;5.05;3.70;;;;;;;19.64;nan;101472.19;4992952;28;20434;-77
2022/05/19 06:37:32;;;;;;;9.32;4.65;;;;;;;19.82;nan;101473.16;4960566;28;20038;-77
2022/05/19 06:39:59;;;;;;;18.58;5.53;;;;;;;20.00;nan;101468.75;4978475;28;20668;-78
2022/05/19 06:42:26;;;;;;;5.57;3.58;;;;;;;20.18;nan;101471.47;4974236;28;20056;-77
2022/05/19 06:44:52;;;;;;;5.07;3.78;;;;;;;20.39;nan;101466.00;4992062;28;20065;-77
2022/05/19 06:47:19;;;;;;;4.10;3.53;;;;;;;20.69;nan;101466.34;4974474;28;20121;-77
2022/05/19 06:49:48;;;;;;;4.78;3.70;;;;;;;20.97;nan;101455.94;4990124;28;20038;-78
2022/05/19 06:52:24;;;;;;;5.28;3.90;;;;;;;21.21;nan;101453.81;4988601;28;20092;-77
2022/05/19 06:54:53;;;;;;;4.55;3.42;;;;;;;21.57;nan;101456.38;4983755;28;20064;-78
2022/05/19 06:57:20;;;;;;;5.28;3.47;;;;;;;21.78;nan;101456.19;4984661;28;20046;-78
2022/05/19 06:59:47;;;;;;;4.80;3.60;;;;;;;21.89;nan;101457.34;4956313;28;20104;-77
2022/05/19 07:02:14;;;;;;;3.92;3.53;;;;;;;22.27;nan;101446.25;4954915;28;20038;-78
2022/05/19 07:04:41;;;;;;;11.60;5.40;;;;;;;22.79;nan;101451.34;4955048;28;20034;-78
2022/05/19 07:07:07;;;;;;;4.40;4.00;;;;;;;23.04;nan;101453.50;4940127;28;20499;-78
2022/05/19 07:09:35;;;;;;;5.20;3.50;;;;;;;22.95;nan;101449.53;4955546;28;20081;-78
2022/05/19 07:12:03;;;;;;;12.13;4.22;;;;;;;23.19;nan;101448.97;4972286;28;20066;-77
2022/05/19 07:14:31;;;;;;;5.03;4.13;;;;;;;23.21;nan;101449.78;4966868;28;20119;-77
2022/05/19 07:16:58;;;;;;;3.90;3.55;;;;;;;23.28;nan;101451.97;4976279;28;20065;-77
2022/05/19 07:22:16;;;;;;;5.45;3.55;;;;;;;23.53;nan;101439.69;4961686;28;20048;-77
2022/05/19 07:24:47;;;;;;;4.78;4.22;;;;;;;23.72;nan;101439.44;4960978;28;20041;-78
2022/05/19 07:27:13;;;;;;;5.25;3.88;;;;;;;23.91;nan;101431.03;4974098;28;20057;-78
2022/05/19 07:29:41;;;;;;;14.02;5.47;;;;;;;24.05;nan;101437.31;4960318;28;20046;-77
2022/05/19 07:32:08;;;;;;;168.98;23.08;;;;;;;24.24;nan;101431.56;4939863;28;20120;-79
2022/05/19 07:34:37;;;;;;;4.60;3.60;;;;;;;24.32;nan;101431.09;4954564;28;20051;-78
2022/05/19 07:37:04;;;;;;;5.93;4.18;;;;;;;24.58;nan;101426.66;4960249;28;20042;-78
2022/05/19 07:39:31;;;;;;;4.05;3.47;;;;;;;24.66;nan;101425.19;4975291;28;20092;-78
2022/05/19 07:41:58;;;;;;;16.88;6.00;;;;;;;24.54;nan;101425.97;4960402;28;20046;-77
2022/05/19 07:44:27;;;;;;;6.55;4.55;;;;;;;24.71;nan;101422.16;4975231;28;20045;-78
2022/05/19 07:46:54;;;;;;;5.65;3.90;;;;;;;24.70;nan;101423.13;4969604;28;20079;-78
2022/05/19 07:49:21;;;;;;;6.22;3.90;;;;;;;24.85;nan;101415.81;4971275;28;20105;-78
2022/05/19 07:51:48;;;;;;;5.95;4.07;;;;;;;24.85;nan;101426.63;4994236;28;20050;-78
2022/05/19 07:54:18;;;;;;;7.05;3.97;;;;;;;24.78;nan;101425.31;4977850;28;20038;-77
2022/05/19 07:56:45;;;;;;;6.10;3.85;;;;;;;24.94;nan;101423.28;4978601;28;20073;-78
2022/05/19 07:59:13;;;;;;;5.07;3.78;;;;;;;25.07;nan;101424.22;4993973;28;20034;-78
2022/05/19 08:01:41;;;;;;;4.47;3.90;;;;;;;25.19;nan;101422.50;4994491;28;20065;-79
2022/05/19 08:04:09;;;;;;;4.20;3.67;;;;;;;25.27;nan;101423.69;4982396;28;20116;-78
2022/05/19 08:06:36;;;;;;;5.25;3.50;;;;;;;25.36;nan;101415.91;4993848;28;20423;-78
2022/05/19 08:11:50;;;;;;;25.90;7.20;;;;;;;25.98;nan;101418.66;4979893;28;20068;-79
2022/05/19 08:17:23;;;;;;;5.50;3.65;;;;;;;26.56;nan;101408.94;4990348;28;20061;-78
2022/05/19 08:19:50;;;;;;;5.00;3.40;;;;;;;26.61;nan;101407.63;4992033;28;20042;-79
2022/05/19 08:22:17;;;;;;;5.65;4.30;;;;;;;26.80;nan;101403.50;4993293;28;20065;-78
2022/05/19 08:24:49;;;;;;;4.88;4.20;;;;;;;26.64;nan;101403.81;5010673;28;20069;-78
2022/05/19 08:27:18;;;;;;;4.47;3.88;;;;;;;26.86;nan;101401.19;4978203;28;20033;-78
2022/05/19 08:29:44;;;;;;;6.57;3.63;;;;;;;26.98;nan;101396.66;5005013;28;20030;-78
2022/05/19 08:32:11;;;;;;;4.50;3.78;;;;;;;26.92;nan;101398.00;4977081;28;20050;-79
2022/05/19 08:34:38;;;;;;;25.00;7.32;;;;;;;27.09;nan;101393.16;4994360;28;20042;-78
2022/05/19 08:37:06;;;;;;;4.47;4.03;;;;;;;26.75;nan;101392.16;4966383;28;20038;-79
2022/05/19 08:39:32;;;;;;;18.30;6.57;;;;;;;27.04;nan;101390.78;4964635;28;20049;-77
2022/05/19 08:42:03;;;;;;;4.95;4.13;;;;;;;27.46;nan;101383.81;4975509;28;20042;-77
2022/05/19 08:44:44;;;;;;;4.55;3.97;;;;;;;27.76;nan;101379.66;4961413;28;20121;-78
2022/05/19 08:47:12;;;;;;;4.38;3.97;;;;;;;27.86;nan;101364.34;4977956;28;20650;-77
2022/05/19 08:50:01;;;;;;;4.25;3.70;;;;;;;28.15;nan;101361.03;4977701;28;20042;-78
2022/05/19 08:52:44;;;;;;;3.97;3.67;;;;;;;28.52;nan;101361.59;4960757;28;20111;-78
2022/05/19 08:55:14;;;;;;;4.25;3.85;;;;;;;28.55;nan;101359.44;4978530;28;20052;-78
2022/05/19 08:57:58;;;;;;;4.03;3.65;;;;;;;28.56;nan;101355.75;4977081;28;20054;-79
2022/05/19 09:00:44;;;;;;;5.30;3.72;;;;;;;28.52;nan;101361.59;4994040;28;20066;-79
2022/05/19 09:03:37;;;;;;;5.53;4.25;;;;;;;28.97;nan;101356.78;4987673;28;20052;-77
2022/05/19 09:06:17;;;;;;;4.20;3.83;;;;;;;29.42;nan;101361.88;4959449;28;20492;-77
2022/05/19 09:08:52;;;;;;;4.13;3.72;;;;;;;29.68;nan;101357.75;4987494;28;20446;-78
2022/05/19 09:11:21;;;;;;;4.43;3.50;;;;;;;29.26;nan;101350.63;4977158;28;20046;-77
2022/05/19 09:14:11;;;;;;;8.82;4.28;;;;;;;29.73;nan;101351.00;4977378;28;20056;-79
2022/05/19 09:16:39;;;;;;;4.13;3.58;;;;;;;29.94;nan;101335.47;4981322;28;20491;-78
2022/05/19 09:19:16;;;;;;;4.88;4.40;;;;;;;29.89;nan;101343.19;4993140;28;20045;-78
2022/05/19 09:21:44;;;;;;;5.85;3.75;;;;;;;29.79;nan;101340.44;4977674;28;20072;-77
2022/05/19 09:24:11;;;;;;;4.32;3.92;;;;;;;29.83;nan;101335.56;4990457;28;20449;-78
2022/05/19 09:26:57;;;;;;;855.67;157.52;;;;;;;29.99;nan;101338.59;4994773;28;20140;-77
2022/05/19 09:29:41;;;;;;;28.83;6.85;;;;;;;30.03;nan;101333.75;4977644;28;20077;-79
2022/05/19 09:32:30;;;;;;;5.65;4.53;;;;;;;29.98;nan;101337.75;4975996;28;20046;-78
2022/05/19 09:35:09;;;;;;;4.85;4.07;;;;;;;29.38;nan;101325.94;4991829;28;20034;-77
2022/05/19 09:37:48;;;;;;;6.72;4.15;;;;;;;30.04;nan;101330.88;4975954;28;20120;-77
2022/05/19 09:40:21;;;;;;;6.85;4.38;;;;;;;30.42;nan;101335.50;4961417;28;20042;-79
2022/05/19 09:43:21;;;;;;;4.63;3.85;;;;;;;30.85;nan;101334.19;4995323;28;20522;-77
2022/05/19 09:45:50;;;;;;;4.90;4.03;;;;;;;31.09;nan;101334.56;5010087;28;20044;-78
2022/05/19 09:48:27;;;;;;;4.05;3.65;;;;;;;30.97;nan;101341.22;4973871;28;20080;-78
2022/05/19 09:51:02;;;;;;;6.10;4.05;;;;;;;30.66;nan;101336.97;4979042;28;20038;-78
2022/05/19 09:53:35;;;;;;;5.03;3.92;;;;;;;30.24;nan;101339.97;4988674;28;20137;-78
2022/05/19 09:56:04;;;;;;;7.82;4.03;;;;;;;29.80;nan;101341.28;4989882;28;20100;-78
2022/05/19 09:58:34;;;;;;;16.70;5.65;;;;;;;30.24;nan;101334.50;4977340;28;20052;-79
2022/05/19 10:01:08;;;;;;;6.35;3.63;;;;;;;30.61;nan;101329.22;4952700;28;20070;-77
2022/05/19 10:03:43;;;;;;;5.00;4.05;;;;;;;31.08;nan;101332.84;4983626;28;20038;-78
2022/05/19 10:06:24;;;;;;;13.93;5.45;;;;;;;31.32;nan;101324.19;4968081;28;20045;-79
2022/05/19 10:08:59;;;;;;;5.18;3.75;;;;;;;31.56;nan;101322.81;5000288;28;20042;-78
2022/05/19 10:11:29;;;;;;;5.40;3.83;;;;;;;31.20;nan;101319.91;4981464;28;20099;-78
2022/05/19 10:14:06;;;;;;;5.47;4.00;;;;;;;31.42;nan;101318.69;4975391;28;20108;-79
2022/05/19 10:16:55;;;;;;;4.22;3.83;;;;;;;31.41;nan;101311.50;5000986;28;20056;-79
2022/05/19 10:19:40;;;;;;;190.32;24.48;;;;;;;31.47;nan;101302.72;4991940;28;20048;-79
2022/05/19 10:22:32;;;;;;;6.05;4.20;;;;;;;31.94;nan;101302.59;4991348;28;20038;-78
2022/05/19 10:25:10;;;;;;;5.82;3.85;;;;;;;32.26;nan;101285.66;4978278;28;20186;-77
2022/05/19 10:31:03;;;;;;;6.20;4.30;;;;;;;32.46;nan;101276.31;4994665;28;20041;-78
2022/05/19 10:33:47;;;;;;;4.40;3.72;;;;;;;32.65;nan;101285.34;5010291;28;20038;-78
2022/05/19 10:36:41;;;;;;;6.75;4.20;;;;;;;32.52;nan;101274.78;4992404;28;20038;-78
2022/05/19 10:39:26;;;;;;;;;;;;;;;32.40;nan;101274.19;4992219;28;20537;-78
2022/05/19 10:42:12;;;;;;;4.65;4.15;;;;;;;31.93;nan;101270.81;4992425;28;20023;-78
2022/05/19 10:44:48;;;;;;;7.70;4.28;;;;;;;31.69;nan;101268.66;4991055;28;20073;-78
2022/05/19 10:47:18;;;;;;;7.28;4.20;;;;;;;31.54;nan;101260.13;4974935;28;20042;-78
2022/05/19 10:50:08;;;;;;;5.38;3.83;;;;;;;31.70;nan;101255.84;4992537;28;20046;-79
2022/05/19 10:52:53;;;;;;;28.80;6.35;;;;;;;31.78;nan;101251.34;4989138;28;20080;-78
2022/05/19 10:55:39;;;;;;;15.23;5.35;;;;;;;31.94;nan;101253.41;4977610;28;20540;-79
2022/05/19 10:58:40;;;;;;;5.30;4.30;;;;;;;31.93;nan;101251.69;4993326;28;20061;-78
2022/05/19 11:01:16;;;;;;;4.47;4.07;;;;;;;31.96;nan;101253.28;4991022;28;20050;-78
2022/05/19 11:04:07;;;;;;;5.30;4.63;;;;;;;31.85;nan;101243.41;5006151;28;20040;-78
2022/05/19 11:06:50;;;;;;;6.72;4.30;;;;;;;32.00;nan;101230.91;4975883;28;20567;-78
2022/05/19 11:09:27;;;;;;;4.40;3.97;;;;;;;32.24;nan;101226.69;4974480;28;20037;-78
2022/05/19 11:11:59;;;;;;;3.90;3.50;;;;;;;32.12;nan;101226.06;4992293;28;20030;-79
2022/05/19 11:14:41;;;;;;;5.73;4.23;;;;;;;32.29;nan;101225.22;5008183;28;20037;-79
2022/05/19 11:17:18;;;;;;;5.80;4.32;;;;;;;31.60;nan;101220.41;5000738;28;20049;-77
2022/05/19 11:19:56;;;;;;;4.78;4.00;;;;;;;31.32;nan;101214.97;4976031;28;20717;-78
2022/05/19 11:22:30;;;;;;;3.50;3.20;;;;;;;31.70;nan;101214.88;4966957;28;20053;-78
2022/05/19 11:28:02;;;;;;;5.35;4.28;;;;;;;31.20;nan;101207.13;4981601;28;20038;-78
2022/05/19 11:30:34;;;;;;;5.40;3.50;;;;;;;31.63;nan;101201.84;4969347;28;20093;-77
2022/05/19 11:33:02;;;;;;;5.60;4.13;;;;;;;31.78;nan;101204.06;4989881;28;20054;-77
2022/05/19 11:35:38;;;;;;;4.80;4.40;;;;;;;32.08;nan;101203.66;4991928;28;20065;-78
2022/05/19 11:38:21;;;;;;;5.85;4.30;;;;;;;32.20;nan;101198.78;4976367;28;20042;-79
2022/05/19 11:41:00;;;;;;;;;;;;;;;32.47;nan;101203.31;4968505;28;20572;-78
2022/05/19 11:43:36;;;;;;;4.05;3.40;;;;;;;32.69;nan;101200.03;4976667;28;19925;-77
2022/05/19 11:46:20;;;;;;;11.85;4.30;;;;;;;32.41;nan;101199.34;4978520;28;20125;-78
2022/05/19 11:55:12;;;;;;;4.90;3.90;;;;;;;32.44;nan;101198.16;4974420;28;20046;-78
2022/05/19 11:58:04;;;;;;;5.28;4.47;;;;;;;32.22;nan;101188.56;4991627;28;20069;-78
2022/05/19 12:00:49;;;;;;;6.47;4.38;;;;;;;32.22;nan;101181.22;4986661;28;20049;-78
2022/05/19 12:03:20;;;;;;;4.50;3.72;;;;;;;32.19;nan;101192.47;5009419;28;20212;-78
2022/05/19 12:06:00;;;;;;;3.70;3.35;;;;;;;31.94;nan;101185.94;4996558;28;20048;-78
2022/05/19 12:08:48;;;;;;;4.60;3.28;;;;;;;32.01;nan;101177.13;5040878;23;20895;-82
2022/05/19 12:11:25;;;;;;;6.72;3.58;;;;;;;32.02;nan;101184.28;4956180;28;20043;-79
2022/05/19 12:14:21;;;;;;;4.57;4.05;;;;;;;32.18;nan;101178.97;4941373;28;20082;-80
2022/05/19 12:16:56;;;;;;;3.70;3.40;;;;;;;32.22;nan;101163.97;4959306;28;20047;-81
2022/05/19 12:19:42;;;;;;;5.10;4.07;;;;;;;32.24;nan;101167.41;4964104;28;20786;-80
2022/05/19 12:22:18;;;;;;;6.05;3.88;;;;;;;32.33;nan;101174.66;4977865;28;20487;-80
2022/05/19 12:24:54;;;;;;;194.25;27.20;;;;;;;32.54;nan;101170.69;4958275;28;20655;-80
2022/05/19 12:27:24;;;;;;;4.40;3.92;;;;;;;32.62;nan;101160.63;4955584;28;20121;-85